Time;durP1;ratioP1;P1;durP2;ratioP2;P2;SDS_P1;SDS_P2;PMS_P1;PMS_P2;Temp;Humidity;BMP_temperature;BMP_pressure;BME280_temperature;BME280_humidity;BME280_pressure;Samples;Min_cycle;Max_cycle;Signal;HPM_P1;HPM_P2
2023/06/18 00:02:06;;;;;;;24.52;14.18;;;;;;;;;;5070875;28;19920;-83
2023/06/18 00:04:32;;;;;;;;;;;;;;;;;;5071545;28;20083;-83
2023/06/18 00:06:58;;;;;;;26.13;15.00;;;;;;;;;;5070793;28;20085;-83
2023/06/18 00:09:24;;;;;;;22.83;14.05;;;;;;;;;;5050908;28;20045;-82
2023/06/18 00:11:50;;;;;;;;;;;;;;;;;;5034828;28;20045;-86
2023/06/18 00:14:16;;;;;;;23.23;14.43;;;;;;;;;;5053307;28;19928;-85
2023/06/18 00:16:42;;;;;;;22.08;14.40;;;;;;;;;;5070132;28;20071;-84
2023/06/18 00:19:08;;;;;;;;;;;;;;;;;;5069139;28;20409;-84
2023/06/18 00:21:35;;;;;;;25.65;14.90;;;;;;;;;;5069800;28;19920;-84
2023/06/18 00:24:01;;;;;;;24.08;14.02;;;;;;;;;;5053097;28;20045;-84
2023/06/18 00:26:28;;;;;;;;;;;;;;;;;;5070449;28;20055;-84
2023/06/18 00:28:54;;;;;;;;;;;;;;;;;;5053391;28;20568;-85
2023/06/18 00:31:20;;;;;;;23.63;14.20;;;;;;;;;;5069697;28;20014;-84
2023/06/18 00:33:46;;;;;;;;;;;;;;;;;;5067132;28;20044;-84
2023/06/18 00:36:12;;;;;;;20.83;13.98;;;;;;;;;;5067832;28;19923;-84
2023/06/18 00:38:46;;;;;;;;;;;;;;;;;;5071615;28;20041;-84
2023/06/18 00:41:13;;;;;;;26.02;13.80;;;;;;;;;;5069044;28;20102;-83
2023/06/18 00:43:39;;;;;;;;;;;;;;;;;;5070434;28;20063;-84
2023/06/18 00:46:05;;;;;;;25.58;14.00;;;;;;;;;;5069379;28;20003;-84
2023/06/18 00:48:31;;;;;;;24.90;14.07;;;;;;;;;;5068892;28;20044;-84
2023/06/18 00:50:59;;;;;;;24.15;14.45;;;;;;;;;;5052658;28;20133;-84
2023/06/18 00:53:25;;;;;;;23.20;14.25;;;;;;;;;;5069311;28;20040;-84
2023/06/18 00:55:52;;;;;;;25.60;14.57;;;;;;;;;;5070335;28;20051;-84
2023/06/18 00:58:23;;;;;;;24.15;14.85;;;;;;;;;;5069963;28;20131;-84
2023/06/18 01:00:50;;;;;;;25.50;15.23;;;;;;;;;;5070286;28;20878;-84
2023/06/18 01:03:17;;;;;;;25.25;14.65;;;;;;;;;;5067899;28;20052;-84
2023/06/18 01:05:49;;;;;;;24.55;14.75;;;;;;;;;;5067259;28;20048;-84
2023/06/18 01:08:17;;;;;;;29.80;15.32;;;;;;;;;;5066954;28;20037;-84
2023/06/18 01:10:44;;;;;;;25.60;15.45;;;;;;;;;;5067042;28;20239;-84
2023/06/18 01:13:14;;;;;;;26.25;15.95;;;;;;;;;;5049624;28;20068;-84
2023/06/18 01:15:40;;;;;;;28.55;15.55;;;;;;;;;;5050278;28;20528;-84
2023/06/18 01:18:07;;;;;;;;;;;;;;;;;;5049001;28;20502;-84
2023/06/18 01:20:40;;;;;;;25.53;15.10;;;;;;;;;;5067099;28;19925;-84
2023/06/18 01:23:10;;;;;;;24.80;15.75;;;;;;;;;;5066224;28;20287;-84
2023/06/18 01:25:37;;;;;;;27.55;16.30;;;;;;;;;;5050264;28;20041;-84
2023/06/18 01:28:07;;;;;;;29.27;16.10;;;;;;;;;;5049496;28;20045;-84
2023/06/18 01:30:36;;;;;;;27.73;15.63;;;;;;;;;;5080669;28;20054;-84
2023/06/18 01:33:03;;;;;;;27.42;17.27;;;;;;;;;;5063562;28;20119;-84
2023/06/18 01:35:29;;;;;;;29.95;17.05;;;;;;;;;;5049558;28;20124;-84
2023/06/18 01:38:01;;;;;;;26.02;16.27;;;;;;;;;;5066060;28;20053;-84
2023/06/18 01:40:31;;;;;;;25.42;15.73;;;;;;;;;;5049379;28;20092;-84
2023/06/18 01:43:02;;;;;;;29.48;16.42;;;;;;;;;;5049562;28;20061;-83
2023/06/18 01:45:49;;;;;;;30.60;17.40;;;;;;;;;;5049904;28;20056;-84
2023/06/18 01:48:15;;;;;;;29.27;16.70;;;;;;;;;;5048643;28;20660;-83
2023/06/18 01:50:43;;;;;;;26.98;15.82;;;;;;;;;;5049870;28;20045;-83
2023/06/18 01:53:11;;;;;;;27.85;16.20;;;;;;;;;;5050765;28;20098;-84
2023/06/18 01:55:37;;;;;;;25.05;15.85;;;;;;;;;;5073187;28;20059;-84
2023/06/18 01:58:03;;;;;;;26.63;15.63;;;;;;;;;;5069861;28;20140;-84
2023/06/18 02:00:29;;;;;;;25.40;15.18;;;;;;;;;;5053811;28;20106;-85
2023/06/18 02:02:55;;;;;;;;;;;;;;;;;;5060203;28;20045;-84
2023/06/18 02:05:21;;;;;;;28.85;17.30;;;;;;;;;;5073476;28;19928;-84
2023/06/18 02:07:47;;;;;;;;;;;;;;;;;;5073507;28;20051;-84
2023/06/18 02:10:13;;;;;;;28.00;16.85;;;;;;;;;;5073184;28;19920;-85
2023/06/18 02:12:39;;;;;;;29.02;17.45;;;;;;;;;;5073061;28;20049;-83
2023/06/18 02:15:06;;;;;;;;;;;;;;;;;;5073649;28;20044;-84
2023/06/18 02:17:32;;;;;;;32.75;17.38;;;;;;;;;;5089353;28;19920;-83
2023/06/18 02:19:59;;;;;;;;;;;;;;;;;;5072926;28;20048;-84
2023/06/18 02:22:25;;;;;;;28.27;16.10;;;;;;;;;;5088801;28;19925;-83
2023/06/18 02:24:51;;;;;;;;;;;;;;;;;;5055032;28;20041;-84
2023/06/18 02:27:17;;;;;;;27.00;15.83;;;;;;;;;;5052079;28;19925;-84
2023/06/18 02:29:44;;;;;;;;;;;;;;;;;;5035880;28;20049;-83
2023/06/18 02:32:10;;;;;;;28.85;17.10;;;;;;;;;;5052786;28;20019;-83
2023/06/18 02:34:36;;;;;;;32.53;17.00;;;;;;;;;;5052802;28;20055;-83
2023/06/18 02:37:02;;;;;;;28.27;16.60;;;;;;;;;;5052924;28;20053;-86
2023/06/18 02:39:28;;;;;;;;;;;;;;;;;;5067777;28;20135;-83
2023/06/18 02:41:54;;;;;;;27.58;16.70;;;;;;;;;;5056162;28;19986;-83
2023/06/18 02:44:20;;;;;;;28.27;16.65;;;;;;;;;;5071574;28;20044;-84
2023/06/18 02:46:46;;;;;;;;;;;;;;;;;;5053475;28;20102;-83
2023/06/18 02:49:12;;;;;;;25.90;15.80;;;;;;;;;;5068280;28;19920;-83
2023/06/18 02:51:38;;;;;;;;;;;;;;;;;;5060191;28;20044;-85
2023/06/18 02:54:04;;;;;;;27.25;16.50;;;;;;;;;;5072262;28;19927;-84
2023/06/18 02:56:30;;;;;;;;;;;;;;;;;;5072498;28;20052;-84
2023/06/18 02:58:56;;;;;;;28.20;16.85;;;;;;;;;;5070284;28;19920;-84
2023/06/18 03:01:26;;;;;;;;;;;;;;;;;;5055426;28;20056;-85
2023/06/18 03:03:53;;;;;;;25.75;15.77;;;;;;;;;;5070887;28;19982;-84
2023/06/18 03:06:19;;;;;;;27.75;16.48;;;;;;;;;;5063696;28;20049;-83
2023/06/18 03:08:46;;;;;;;26.02;16.02;;;;;;;;;;5052399;28;20533;-83
2023/06/18 03:11:12;;;;;;;29.80;17.40;;;;;;;;;;5052246;28;20045;-83
2023/06/18 03:13:38;;;;;;;28.00;16.73;;;;;;;;;;5052458;28;20469;-83
2023/06/18 03:16:04;;;;;;;28.73;16.90;;;;;;;;;;5052485;28;20374;-84
2023/06/18 03:18:31;;;;;;;;;;;;;;;;;;5051862;28;20099;-83
2023/06/18 03:20:57;;;;;;;30.40;17.10;;;;;;;;;;5052301;28;19925;-84
2023/06/18 03:23:23;;;;;;;26.48;16.15;;;;;;;;;;5088243;28;20049;-83
2023/06/18 03:25:49;;;;;;;;;;;;;;;;;;5072853;28;20044;-83
2023/06/18 03:28:15;;;;;;;31.70;17.80;;;;;;;;;;5071009;28;19928;-83
2023/06/18 03:30:41;;;;;;;;;;;;;;;;;;5071385;28;20647;-84
2023/06/18 03:33:08;;;;;;;32.75;19.83;;;;;;;;;;5070395;28;19924;-86
2023/06/18 03:35:36;;;;;;;40.05;22.25;;;;;;;;;;5072424;28;20511;-83
2023/06/18 03:38:03;;;;;;;45.88;23.60;;;;;;;;;;5067730;28;20079;-84
2023/06/18 03:40:29;;;;;;;38.47;23.13;;;;;;;;;;5070824;28;20048;-84
2023/06/18 03:42:55;;;;;;;;;;;;;;;;;;5071858;28;20197;-84
2023/06/18 03:45:21;;;;;;;41.42;21.63;;;;;;;;;;5071272;28;19959;-83
2023/06/18 03:47:47;;;;;;;;;;;;;;;;;;5071817;28;20074;-83
2023/06/18 03:50:13;;;;;;;44.95;23.80;;;;;;;;;;5071536;28;20448;-84
2023/06/18 03:52:39;;;;;;;34.17;18.55;;;;;;;;;;5071600;28;20444;-83
2023/06/18 03:55:05;;;;;;;;;;;;;;;;;;5071974;28;20088;-84
2023/06/18 03:57:31;;;;;;;40.08;22.65;;;;;;;;;;5070163;28;19994;-83
2023/06/18 03:59:57;;;;;;;;;;;;;;;;;;5053545;28;20067;-84
2023/06/18 04:02:23;;;;;;;43.70;23.30;;;;;;;;;;5068544;28;19920;-85
2023/06/18 04:04:49;;;;;;;;;;;;;;;;;;5051753;28;20132;-84
2023/06/18 04:07:15;;;;;;;40.70;23.60;;;;;;;;;;5050369;28;19925;-84
2023/06/18 04:09:41;;;;;;;;;;;;;;;;;;5051207;28;20041;-83
2023/06/18 04:12:07;;;;;;;38.83;21.92;;;;;;;;;;5067852;28;19931;-83
2023/06/18 04:14:36;;;;;;;39.13;22.85;;;;;;;;;;5055753;28;20040;-83
2023/06/18 04:17:02;;;;;;;41.72;23.08;;;;;;;;;;5070321;28;20052;-83
2023/06/18 04:19:28;;;;;;;;;;;;;;;;;;5070272;28;20100;-83
2023/06/18 04:21:54;;;;;;;42.00;22.52;;;;;;;;;;5070824;28;20369;-83
2023/06/18 04:24:20;;;;;;;;;;;;;;;;;;5070678;28;20083;-83
2023/06/18 04:26:46;;;;;;;38.03;22.77;;;;;;;;;;5065897;28;19968;-83
2023/06/18 04:29:12;;;;;;;;;;;;;;;;;;5050743;28;20044;-85
2023/06/18 04:31:38;;;;;;;39.17;21.88;;;;;;;;;;5050641;28;19925;-84
2023/06/18 04:34:04;;;;;;;40.03;21.83;;;;;;;;;;5050449;28;20057;-84
2023/06/18 04:36:31;;;;;;;;;;;;;;;;;;5051029;28;20045;-83
2023/06/18 04:38:57;;;;;;;32.17;18.85;;;;;;;;;;5067926;28;19921;-83
2023/06/18 04:41:23;;;;;;;;;;;;;;;;;;5051022;28;20139;-83
2023/06/18 04:43:49;;;;;;;34.63;20.55;;;;;;;;;;5067656;28;20003;-84
2023/06/18 04:46:14;;;;;;;;;;;;;;;;;;5055629;28;20049;-85
2023/06/18 04:48:41;;;;;;;35.63;19.73;;;;;;;;;;5049585;28;19927;-83
2023/06/18 04:51:07;;;;;;;;;;;;;;;;;;5061167;28;20044;-85
2023/06/18 04:53:33;;;;;;;28.90;16.27;;;;;;;;;;5066445;28;20535;-84
2023/06/18 04:55:59;;;;;;;;;;;;;;;;;;5051215;28;20678;-83
2023/06/18 04:58:26;;;;;;;39.38;22.27;;;;;;;;;;5063548;28;20273;-84
2023/06/18 05:00:52;;;;;;;;;;;;;;;;;;5071136;28;20156;-83
2023/06/18 05:03:18;;;;;;;43.22;22.85;;;;;;;;;;5069434;28;19931;-84
2023/06/18 05:05:44;;;;;;;;;;;;;;;;;;5070577;28;20182;-84
2023/06/18 05:08:11;;;;;;;37.08;22.02;;;;;;;;;;5067123;28;20019;-83
2023/06/18 05:10:37;;;;;;;38.47;21.60;;;;;;;;;;5058340;28;20447;-84
2023/06/18 05:13:03;;;;;;;;;;;;;;;;;;5070966;28;20571;-83
2023/06/18 05:15:29;;;;;;;42.05;21.42;;;;;;;;;;5070383;28;19982;-84
2023/06/18 05:17:55;;;;;;;;;;;;;;;;;;5070212;28;20040;-83
2023/06/18 05:20:21;;;;;;;37.35;21.50;;;;;;;;;;5070442;28;19920;-83
2023/06/18 05:22:47;;;;;;;;;;;;;;;;;;5070862;28;20187;-83
2023/06/18 05:25:13;;;;;;;41.15;22.88;;;;;;;;;;5070573;28;20007;-84
2023/06/18 05:27:39;;;;;;;;;;;;;;;;;;5055276;28;20084;-83
2023/06/18 05:30:05;;;;;;;40.70;21.95;;;;;;;;;;5073084;28;20021;-84
2023/06/18 05:32:32;;;;;;;42.97;23.05;;;;;;;;;;5073124;28;20056;-83
2023/06/18 05:34:58;;;;;;;;;;;;;;;;;;5074504;28;20097;-84
2023/06/18 05:37:24;;;;;;;37.42;22.13;;;;;;;;;;5052749;28;19921;-84
2023/06/18 05:39:52;;;;;;;31.13;19.88;;;;;;;;;;5053687;28;20080;-84
2023/06/18 05:42:18;;;;;;;38.63;21.77;;;;;;;;;;5053462;28;20486;-84
2023/06/18 05:44:44;;;;;;;39.20;22.95;;;;;;;;;;5053519;28;20091;-83
2023/06/18 05:47:10;;;;;;;35.70;21.77;;;;;;;;;;5054422;28;20060;-83
2023/06/18 05:49:36;;;;;;;;;;;;;;;;;;5054177;28;20094;-85
2023/06/18 05:52:02;;;;;;;35.47;22.00;;;;;;;;;;5066855;28;19921;-84
2023/06/18 05:54:28;;;;;;;37.75;22.33;;;;;;;;;;5053392;28;20084;-84
2023/06/18 05:56:54;;;;;;;;;;;;;;;;;;5053950;28;20056;-84
2023/06/18 05:59:21;;;;;;;38.78;20.98;;;;;;;;;;5053160;28;19921;-85
2023/06/18 06:01:47;;;;;;;37.88;21.95;;;;;;;;;;5053513;28;20048;-84
2023/06/18 06:04:13;;;;;;;;;;;;;;;;;;5058589;28;20037;-83
2023/06/18 06:06:39;;;;;;;39.45;21.58;;;;;;;;;;5072736;28;19932;-83
2023/06/18 06:09:05;;;;;;;;;;;;;;;;;;5073937;28;20401;-84
2023/06/18 06:11:36;;;;;;;35.85;19.92;;;;;;;;;;5072764;28;19927;-83
2023/06/18 06:14:02;;;;;;;27.35;16.90;;;;;;;;;;5055247;28;20055;-83
2023/06/18 06:16:28;;;;;;;13.57;9.90;;;;;;;;;;5052960;28;20103;-84
2023/06/18 06:18:54;;;;;;;;;;;;;;;;;;5052841;28;20053;-83
2023/06/18 06:21:20;;;;;;;24.38;15.02;;;;;;;;;;5053097;28;19920;-85
2023/06/18 06:23:46;;;;;;;;;;;;;;;;;;5053518;28;20041;-84
2023/06/18 06:26:12;;;;;;;33.22;17.88;;;;;;;;;;5069770;28;20019;-84
2023/06/18 06:28:38;;;;;;;19.80;12.27;;;;;;;;;;5057509;28;20036;-84
2023/06/18 06:31:04;;;;;;;;;;;;;;;;;;5056914;28;20040;-84
2023/06/18 06:33:31;;;;;;;30.50;16.73;;;;;;;;;;5072328;28;19928;-84
2023/06/18 06:35:57;;;;;;;28.13;18.23;;;;;;;;;;5063323;28;20088;-84
2023/06/18 06:38:23;;;;;;;26.38;15.65;;;;;;;;;;5051820;28;20049;-85
2023/06/18 06:40:49;;;;;;;;;;;;;;;;;;5052365;28;20060;-84
2023/06/18 06:43:15;;;;;;;29.13;17.75;;;;;;;;;;5052413;28;20329;-84
2023/06/18 06:45:41;;;;;;;31.30;19.13;;;;;;;;;;5052073;28;20049;-85
2023/06/18 06:48:07;;;;;;;28.08;16.73;;;;;;;;;;5060372;28;20490;-84
2023/06/18 06:50:33;;;;;;;;;;;;;;;;;;5056121;28;20044;-85
2023/06/18 06:52:59;;;;;;;11.80;7.70;;;;;;;;;;5071853;28;20423;-85
2023/06/18 06:55:25;;;;;;;;;;;;;;;;;;5072189;28;20052;-69
2023/06/18 06:57:51;;;;;;;16.23;9.98;;;;;;;;;;5071056;28;19931;-81
2023/06/18 07:00:17;;;;;;;;;;;;;;;;;;5074682;28;20059;-87
2023/06/18 07:02:43;;;;;;;26.23;15.80;;;;;;;;;;5072668;28;19920;-84
2023/06/18 07:05:10;;;;;;;;;;;;;;;;;;5073180;28;20482;-85
2023/06/18 07:07:36;;;;;;;24.45;14.02;;;;;;;;;;5083094;28;19923;-85
2023/06/18 07:10:04;;;;;;;29.60;16.67;;;;;;;;;;5071692;28;20045;-85
2023/06/18 07:12:30;;;;;;;25.13;16.35;;;;;;;;;;5054926;28;20114;-85
2023/06/18 07:14:56;;;;;;;;;;;;;;;;;;5052255;28;20061;-85
2023/06/18 07:17:22;;;;;;;22.90;11.88;;;;;;;;;;5068642;28;19928;-85
2023/06/18 07:19:48;;;;;;;;;;;;;;;;;;5055375;28;20393;-85
2023/06/18 07:22:14;;;;;;;20.02;11.95;;;;;;;;;;5059053;28;19927;-85
2023/06/18 07:24:40;;;;;;;23.65;13.20;;;;;;;;;;5051973;28;20045;-85
2023/06/18 07:27:06;;;;;;;;;;;;;;;;;;5052734;28;20094;-85
2023/06/18 07:29:32;;;;;;;21.80;12.97;;;;;;;;;;5051441;28;19928;-86
2023/06/18 07:31:58;;;;;;;;;;;;;;;;;;5052325;28;20110;-85
2023/06/18 07:34:24;;;;;;;20.35;12.00;;;;;;;;;;5079959;28;19928;-85
2023/06/18 07:36:51;;;;;;;13.70;9.57;;;;;;;;;;5069816;28;20048;-85
2023/06/18 07:39:17;;;;;;;25.63;15.77;;;;;;;;;;5062569;28;20053;-85
2023/06/18 07:41:47;;;;;;;14.82;9.23;;;;;;;;;;5057802;28;20403;-85
2023/06/18 07:44:13;;;;;;;15.98;9.90;;;;;;;;;;5071845;28;20088;-86
2023/06/18 07:46:39;;;;;;;23.10;12.95;;;;;;;;;;5083951;28;20071;-71
2023/06/18 07:49:05;;;;;;;16.35;10.27;;;;;;;;;;5050396;28;20558;-70
2023/06/18 07:51:32;;;;;;;27.83;15.93;;;;;;;;;;5059149;28;20382;-70
2023/06/18 07:53:58;;;;;;;22.95;13.02;;;;;;;;;;5071422;28;20044;-73
2023/06/18 07:56:26;;;;;;;21.90;13.90;;;;;;;;;;5070175;28;20724;-73
2023/06/18 07:58:52;;;;;;;29.48;15.85;;;;;;;;;;5069326;28;20387;-73
2023/06/18 08:01:18;;;;;;;21.80;14.05;;;;;;;;;;5056909;28;20051;-86
2023/06/18 08:03:45;;;;;;;18.52;11.05;;;;;;;;;;5050145;28;20048;-83
2023/06/18 08:06:11;;;;;;;22.90;13.38;;;;;;;;;;5066733;28;20094;-75
2023/06/18 08:08:37;;;;;;;25.98;14.48;;;;;;;;;;5050613;28;20442;-74
2023/06/18 08:11:03;;;;;;;20.80;12.48;;;;;;;;;;5068247;28;20051;-73
2023/06/18 08:13:30;;;;;;;15.73;10.80;;;;;;;;;;5070034;28;20075;-68
2023/06/18 08:15:56;;;;;;;11.43;6.63;;;;;;;;;;5069088;28;20049;-68
2023/06/18 08:18:22;;;;;;;13.25;8.80;;;;;;;;;;5074169;28;20555;-68
2023/06/18 08:20:49;;;;;;;14.10;9.88;;;;;;;;;;5081459;28;20044;-68
2023/06/18 08:23:15;;;;;;;13.68;7.95;;;;;;;;;;5076585;28;20048;-67
2023/06/18 08:25:42;;;;;;;15.50;9.75;;;;;;;;;;5077731;28;20704;-68
2023/06/18 08:28:08;;;;;;;11.63;7.05;;;;;;;;;;5077658;28;20101;-69
2023/06/18 08:30:34;;;;;;;10.95;7.88;;;;;;;;;;5084900;28;20134;-69
2023/06/18 08:33:00;;;;;;;14.32;8.88;;;;;;;;;;5082702;28;20062;-72
2023/06/18 08:35:26;;;;;;;15.40;10.23;;;;;;;;;;5090913;28;20052;-70
2023/06/18 08:37:52;;;;;;;16.30;7.60;;;;;;;;;;5089231;28;20292;-71
2023/06/18 08:40:21;;;;;;;11.80;7.57;;;;;;;;;;5090900;28;20048;-71
2023/06/18 08:42:47;;;;;;;10.82;6.80;;;;;;;;;;5082584;28;20070;-70
2023/06/18 08:45:13;;;;;;;14.25;7.82;;;;;;;;;;5082422;28;20055;-71
2023/06/18 08:47:40;;;;;;;11.77;6.38;;;;;;;;;;5077749;28;20056;-72
2023/06/18 08:50:07;;;;;;;10.73;5.28;;;;;;;;;;5078566;28;20489;-72
2023/06/18 08:52:33;;;;;;;9.30;6.13;;;;;;;;;;5088266;28;20044;-72
2023/06/18 08:55:06;;;;;;;10.13;6.70;;;;;;;;;;5089913;28;20458;-73
2023/06/18 08:57:33;;;;;;;8.98;5.90;;;;;;;;;;5082304;28;20053;-84
2023/06/18 08:59:59;;;;;;;7.82;5.20;;;;;;;;;;5066229;28;20048;-80
2023/06/18 09:02:26;;;;;;;9.50;6.13;;;;;;;;;;5072645;28;20055;-80
2023/06/18 09:04:53;;;;;;;9.70;6.45;;;;;;;;;;5092750;28;20040;-81
2023/06/18 09:07:20;;;;;;;8.75;5.22;;;;;;;;;;5082093;28;20052;-90
2023/06/18 09:09:47;;;;;;;6.55;4.47;;;;;;;;;;5092815;28;20048;-84
2023/06/18 09:12:13;;;;;;;12.15;7.40;;;;;;;;;;5071865;28;20125;-84
2023/06/18 09:14:39;;;;;;;11.98;7.97;;;;;;;;;;5079278;28;20413;-83
2023/06/18 09:17:05;;;;;;;10.43;5.65;;;;;;;;;;5088338;28;20039;-84
2023/06/18 09:19:33;;;;;;;10.95;6.93;;;;;;;;;;5092872;28;20066;-85
2023/06/18 09:22:25;;;;;;;8.57;4.97;;;;;;;;;;5087733;28;20052;-85
2023/06/18 09:24:58;;;;;;;10.48;6.93;;;;;;;;;;5090759;28;20063;-86
2023/06/18 09:27:32;;;;;;;9.65;5.38;;;;;;;;;;5090063;28;20051;-78
2023/06/18 09:29:58;;;;;;;13.68;7.28;;;;;;;;;;5091755;28;20052;-78
2023/06/18 09:32:24;;;;;;;11.65;6.93;;;;;;;;;;5082604;28;20083;-78
2023/06/18 09:34:50;;;;;;;10.93;5.55;;;;;;;;;;5091386;28;20066;-80
2023/06/18 09:37:16;;;;;;;12.05;6.40;;;;;;;;;;5083228;28;20039;-81
2023/06/18 09:39:43;;;;;;;11.27;6.25;;;;;;;;;;5083656;28;20141;-81
2023/06/18 09:42:13;;;;;;;6.07;4.53;;;;;;;;;;5092949;28;20040;-80
2023/06/18 09:44:44;;;;;;;11.95;6.68;;;;;;;;;;5091938;28;20044;-80
2023/06/18 09:47:11;;;;;;;12.27;6.05;;;;;;;;;;5092391;28;20075;-79
2023/06/18 09:49:38;;;;;;;10.63;6.05;;;;;;;;;;5091083;28;20404;-79
2023/06/18 09:52:07;;;;;;;10.25;6.65;;;;;;;;;;5090957;28;20083;-72
2023/06/18 09:54:43;;;;;;;10.02;6.25;;;;;;;;;;5086543;28;20055;-71
2023/06/18 09:57:10;;;;;;;;;;;;;;;;;;5087433;28;20040;-71
2023/06/18 09:59:36;;;;;;;10.77;6.60;;;;;;;;;;5069938;28;19924;-72
2023/06/18 10:02:03;;;;;;;10.93;6.65;;;;;;;;;;5089455;28;20044;-71
2023/06/18 10:04:29;;;;;;;12.38;7.07;;;;;;;;;;5069906;28;20055;-71
2023/06/18 10:06:58;;;;;;;14.20;6.72;;;;;;;;;;5090718;28;20051;-71
2023/06/18 10:09:29;;;;;;;12.75;6.60;;;;;;;;;;5087160;28;20044;-71
2023/06/18 10:11:55;;;;;;;11.25;6.50;;;;;;;;;;5084174;28;20047;-70
2023/06/18 10:14:25;;;;;;;9.85;6.45;;;;;;;;;;5103606;28;20056;-70
2023/06/18 10:16:53;;;;;;;10.80;6.50;;;;;;;;;;5084054;28;20048;-70
2023/06/18 10:19:19;;;;;;;10.38;5.30;;;;;;;;;;5076526;28;20064;-70
2023/06/18 10:21:47;;;;;;;7.72;4.93;;;;;;;;;;5090053;28;20127;-71
2023/06/18 10:24:15;;;;;;;11.98;5.53;;;;;;;;;;5080390;28;20056;-70
2023/06/18 10:26:42;;;;;;;10.75;6.28;;;;;;;;;;5092468;28;20048;-72
2023/06/18 10:29:11;;;;;;;10.00;6.60;;;;;;;;;;5093098;28;20127;-71
2023/06/18 10:31:38;;;;;;;13.60;7.00;;;;;;;;;;5074560;28;20051;-71
2023/06/18 10:34:08;;;;;;;11.27;5.25;;;;;;;;;;5090559;28;20044;-72
2023/06/18 10:36:34;;;;;;;8.25;4.53;;;;;;;;;;5088624;28;20058;-73
2023/06/18 10:39:01;;;;;;;10.75;7.25;;;;;;;;;;5085395;28;20040;-72
2023/06/18 10:41:27;;;;;;;9.80;6.18;;;;;;;;;;5084997;28;20056;-72
2023/06/18 10:43:54;;;;;;;12.57;6.88;;;;;;;;;;5092435;28;20048;-72
2023/06/18 10:46:21;;;;;;;11.73;6.47;;;;;;;;;;5091840;28;20055;-72
2023/06/18 10:49:06;;;;;;;8.85;4.63;;;;;;;;;;5089590;28;20058;-72
2023/06/18 10:51:32;;;;;;;9.40;5.35;;;;;;;;;;5091990;28;20048;-72
2023/06/18 10:54:18;;;;;;;12.35;6.00;;;;;;;;;;5091918;28;20048;-72
2023/06/18 10:56:54;;;;;;;8.75;4.97;;;;;;;;;;5090950;28;20036;-72
2023/06/18 10:59:35;;;;;;;11.25;6.10;;;;;;;;;;5089735;28;20056;-73
2023/06/18 11:02:01;;;;;;;10.27;6.32;;;;;;;;;;5080371;28;20137;-72
2023/06/18 11:04:31;;;;;;;9.15;5.80;;;;;;;;;;5071079;28;20080;-72
2023/06/18 11:07:14;;;;;;;10.00;6.28;;;;;;;;;;5080981;28;20048;-72
2023/06/18 11:09:57;;;;;;;9.40;6.03;;;;;;;;;;5084802;28;20133;-73
2023/06/18 11:12:24;;;;;;;13.25;6.80;;;;;;;;;;5092376;28;20051;-72
2023/06/18 11:15:06;;;;;;;8.32;5.45;;;;;;;;;;5087020;28;20498;-72
2023/06/18 11:17:35;;;;;;;12.98;6.50;;;;;;;;;;5089110;28;20100;-72
2023/06/18 11:20:03;;;;;;;13.52;6.50;;;;;;;;;;5091615;28;20556;-72
2023/06/18 11:22:30;;;;;;;10.38;6.40;;;;;;;;;;5090971;28;20063;-74
2023/06/18 11:24:58;;;;;;;11.35;6.75;;;;;;;;;;5086916;28;20059;-79
2023/06/18 11:27:25;;;;;;;10.05;6.40;;;;;;;;;;5089814;28;20121;-79
2023/06/18 11:29:57;;;;;;;11.07;7.30;;;;;;;;;;5085682;28;20056;-80
2023/06/18 11:32:25;;;;;;;7.47;5.22;;;;;;;;;;5090001;28;20036;-78
2023/06/18 11:34:51;;;;;;;9.82;6.00;;;;;;;;;;5086726;28;20123;-72
2023/06/18 11:37:17;;;;;;;12.27;6.70;;;;;;;;;;5079155;28;20609;-78
2023/06/18 11:39:43;;;;;;;11.85;6.60;;;;;;;;;;5071803;28;20047;-89
2023/06/18 11:42:13;;;;;;;10.60;6.40;;;;;;;;;;5067722;28;20516;-83
2023/06/18 11:44:46;;;;;;;10.43;6.50;;;;;;;;;;5084257;28;20045;-77
2023/06/18 11:47:12;;;;;;;10.63;6.10;;;;;;;;;;5067929;28;20044;-89
2023/06/18 11:49:42;;;;;;;13.27;6.78;;;;;;;;;;5074576;28;20397;-72
2023/06/18 11:52:08;;;;;;;9.98;6.53;;;;;;;;;;5066279;28;20048;-86
2023/06/18 11:54:36;;;;;;;10.75;6.60;;;;;;;;;;5077743;28;20044;-69
2023/06/18 11:57:02;;;;;;;9.43;6.00;;;;;;;;;;5089128;28;20044;-77
2023/06/18 11:59:28;;;;;;;8.27;4.93;;;;;;;;;;5086392;28;20049;-77
2023/06/18 12:01:54;;;;;;;6.55;4.60;;;;;;;;;;5083073;28;20079;-76
2023/06/18 12:04:20;;;;;;;9.45;5.28;;;;;;;;;;5089430;28;20491;-78
2023/06/18 12:06:47;;;;;;;8.45;5.70;;;;;;;;;;5090817;28;20040;-79
2023/06/18 12:09:13;;;;;;;8.75;5.00;;;;;;;;;;5072326;28;20040;-79
2023/06/18 12:11:54;;;;;;;6.53;4.78;;;;;;;;;;5077691;28;20049;-83
2023/06/18 12:14:35;;;;;;;10.45;6.10;;;;;;;;;;5087700;28;20443;-83
2023/06/18 12:17:06;;;;;;;9.57;6.00;;;;;;;;;;5086026;28;20039;-81
2023/06/18 12:19:34;;;;;;;10.27;5.95;;;;;;;;;;5071809;28;20097;-82
2023/06/18 12:22:00;;;;;;;8.20;5.85;;;;;;;;;;5087985;28;20669;-85
2023/06/18 12:24:28;;;;;;;11.65;6.30;;;;;;;;;;5090212;28;20490;-83
2023/06/18 12:26:55;;;;;;;9.20;5.40;;;;;;;;;;5088672;28;20083;-82
2023/06/18 12:29:21;;;;;;;10.30;6.05;;;;;;;;;;5089717;28;20115;-83
2023/06/18 12:32:01;;;;;;;8.90;5.80;;;;;;;;;;5090483;28;20058;-82
2023/06/18 12:34:27;;;;;;;11.10;6.03;;;;;;;;;;5087590;28;20083;-83
2023/06/18 12:36:56;;;;;;;11.35;5.80;;;;;;;;;;5083682;28;20051;-74
2023/06/18 12:39:22;;;;;;;8.85;5.28;;;;;;;;;;5082978;28;20131;-84
2023/06/18 12:41:48;;;;;;;8.65;5.53;;;;;;;;;;5088841;28;20097;-84
2023/06/18 12:44:14;;;;;;;9.35;5.18;;;;;;;;;;5090202;28;20048;-84
2023/06/18 12:46:44;;;;;;;10.07;5.93;;;;;;;;;;5089433;28;20051;-83
2023/06/18 12:49:10;;;;;;;7.10;5.05;;;;;;;;;;5087864;28;20044;-82
2023/06/18 12:51:42;;;;;;;11.63;6.32;;;;;;;;;;5090260;28;20070;-84
2023/06/18 12:54:18;;;;;;;6.90;5.18;;;;;;;;;;5089244;28;20054;-82
2023/06/18 12:56:50;;;;;;;10.13;5.40;;;;;;;;;;5089961;28;20036;-73
2023/06/18 12:59:18;;;;;;;8.05;5.50;;;;;;;;;;5050067;28;20053;-84
2023/06/18 13:01:44;;;;;;;9.05;5.93;;;;;;;;;;5057206;28;20057;-85
2023/06/18 13:04:11;;;;;;;8.90;5.95;;;;;;;;;;5074190;28;20065;-85
2023/06/18 13:06:37;;;;;;;8.57;6.10;;;;;;;;;;5071713;28;20059;-83
2023/06/18 13:09:04;;;;;;;10.75;6.15;;;;;;;;;;5079509;28;20128;-83
2023/06/18 13:11:31;;;;;;;10.77;6.60;;;;;;;;;;5084562;28;20056;-82
2023/06/18 13:13:57;;;;;;;9.10;5.95;;;;;;;;;;5071232;28;20056;-81
2023/06/18 13:16:24;;;;;;;6.47;4.55;;;;;;;;;;5089234;28;20051;-82
2023/06/18 13:18:50;;;;;;;7.38;5.72;;;;;;;;;;5070654;28;20105;-82
2023/06/18 13:21:16;;;;;;;9.27;5.57;;;;;;;;;;5070279;28;20067;-83
2023/06/18 13:23:43;;;;;;;8.57;5.70;;;;;;;;;;5088537;28;20094;-82
2023/06/18 13:26:09;;;;;;;9.98;6.65;;;;;;;;;;5063217;28;20079;-82
2023/06/18 13:28:35;;;;;;;12.93;6.43;;;;;;;;;;5085845;28;20494;-83
2023/06/18 13:31:01;;;;;;;11.27;6.60;;;;;;;;;;5083616;28;20048;-82
2023/06/18 13:33:28;;;;;;;10.02;6.10;;;;;;;;;;5087849;28;20527;-85
2023/06/18 13:35:54;;;;;;;8.18;6.18;;;;;;;;;;5080557;28;20785;-86
2023/06/18 13:38:20;;;;;;;9.75;6.30;;;;;;;;;;5062755;28;20122;-86
2023/06/18 13:40:46;;;;;;;11.15;6.28;;;;;;;;;;5085596;28;20083;-86
2023/06/18 13:43:13;;;;;;;11.52;6.35;;;;;;;;;;5066498;28;20044;-85
2023/06/18 13:45:39;;;;;;;9.25;6.50;;;;;;;;;;5077303;28;20090;-85
2023/06/18 13:48:06;;;;;;;9.13;6.00;;;;;;;;;;5079164;28;20044;-84
2023/06/18 13:50:33;;;;;;;7.57;5.40;;;;;;;;;;5077394;28;20051;-86
2023/06/18 13:52:59;;;;;;;8.80;5.70;;;;;;;;;;5091539;28;20044;-83
2023/06/18 13:55:25;;;;;;;10.60;6.15;;;;;;;;;;5075057;28;20153;-87
2023/06/18 13:57:51;;;;;;;10.75;6.30;;;;;;;;;;5075860;28;20083;-86
2023/06/18 14:00:18;;;;;;;14.02;5.90;;;;;;;;;;5086181;28;20105;-86
2023/06/18 14:02:44;;;;;;;8.65;6.32;;;;;;;;;;5079414;28;20052;-86
2023/06/18 14:05:11;;;;;;;10.85;6.55;;;;;;;;;;5074889;28;20045;-85
2023/06/18 14:07:37;;;;;;;9.90;6.47;;;;;;;;;;5075659;28;20101;-84
2023/06/18 14:10:04;;;;;;;9.38;6.60;;;;;;;;;;5083695;28;20729;-84
2023/06/18 14:12:30;;;;;;;12.02;7.00;;;;;;;;;;5072591;28;20070;-84
2023/06/18 14:14:56;;;;;;;8.93;6.07;;;;;;;;;;5091465;28;20051;-85
2023/06/18 14:17:23;;;;;;;8.70;6.03;;;;;;;;;;5090888;28;20146;-83
2023/06/18 14:19:49;;;;;;;9.05;5.78;;;;;;;;;;5073260;28;20493;-85
2023/06/18 14:22:15;;;;;;;7.53;5.30;;;;;;;;;;5070158;28;20090;-86
2023/06/18 14:24:41;;;;;;;7.40;5.43;;;;;;;;;;5065677;28;20058;-86
2023/06/18 14:27:08;;;;;;;11.98;6.45;;;;;;;;;;5090797;28;20053;-85
2023/06/18 14:29:34;;;;;;;9.43;6.07;;;;;;;;;;5090821;28;20058;-85
2023/06/18 14:32:00;;;;;;;9.52;5.22;;;;;;;;;;5091364;28;20048;-87
2023/06/18 14:34:26;;;;;;;8.82;5.95;;;;;;;;;;5072786;28;20036;-85
2023/06/18 14:36:55;;;;;;;10.40;6.20;;;;;;;;;;5072635;28;20059;-84
2023/06/18 14:39:21;;;;;;;8.73;5.72;;;;;;;;;;5090035;28;20044;-87
2023/06/18 14:41:47;;;;;;;9.23;5.68;;;;;;;;;;5091821;28;20052;-83
2023/06/18 14:44:13;;;;;;;8.73;5.40;;;;;;;;;;5089980;28;20106;-87
2023/06/18 14:46:39;;;;;;;6.88;4.97;;;;;;;;;;5064541;28;20100;-86
2023/06/18 14:49:05;;;;;;;7.00;4.90;;;;;;;;;;5076600;28;20035;-83